createdAt,value
2023-04-03T00:04:31.343Z,91.60
2023-04-03T00:09:34.589Z,91.70
2023-04-03T00:14:37.881Z,91.80
2023-04-03T00:19:42.817Z,91.90
2023-04-03T00:24:46.550Z,92.00
2023-04-03T00:29:50.062Z,92.00
2023-04-03T00:34:54.668Z,92.00
2023-04-03T00:39:57.973Z,92.00
2023-04-03T00:45:41.503Z,92.10
2023-04-03T00:50:47.395Z,92.10
2023-04-03T00:55:53.133Z,92.20
2023-04-03T01:00:58.774Z,92.40
2023-04-03T01:06:03.961Z,92.60
2023-04-03T01:11:07.336Z,93.10
2023-04-03T01:16:11.424Z,93.10
2023-04-03T01:21:56.725Z,93.30
2023-04-03T01:27:00.519Z,93.40
2023-04-03T01:32:06.522Z,93.50
2023-04-03T01:37:09.979Z,93.80
2023-04-03T01:42:13.410Z,94.00
2023-04-03T01:47:21.696Z,94.10
2023-04-03T01:52:25.157Z,94.40
2023-04-03T01:57:28.542Z,94.50
2023-04-03T02:02:33.569Z,94.70
2023-04-03T02:07:37.007Z,95.00
2023-04-03T02:12:40.339Z,95.10
2023-04-03T02:17:45.409Z,95.30
2023-04-03T02:22:50.641Z,95.30
2023-04-03T02:27:55.221Z,95.40
2023-04-03T02:32:59.916Z,95.50
2023-04-03T02:38:03.709Z,95.60
2023-04-03T02:43:07.091Z,95.80
2023-04-03T02:48:13.051Z,96.00
2023-04-03T02:53:16.452Z,96.00
2023-04-03T02:58:20.490Z,96.20
2023-04-03T03:03:25.658Z,96.50
2023-04-03T03:08:29.400Z,96.90
2023-04-03T03:13:33.984Z,97.20
2023-04-03T03:18:39.342Z,97.60
2023-04-03T03:23:42.800Z,97.90
2023-04-03T03:28:46.575Z,98.20
2023-04-03T03:33:51.653Z,98.50
2023-04-03T03:38:55.968Z,98.90
2023-04-03T03:43:59.281Z,99.10
2023-04-03T03:49:05.900Z,99.50
2023-04-03T03:54:09.955Z,99.70
2023-04-03T03:59:14.561Z,99.90
2023-04-03T04:04:20.118Z,99.90
2023-04-03T04:09:23.721Z,99.90
2023-04-03T04:14:27.539Z,99.90
2023-04-03T04:19:32.739Z,99.90
2023-04-03T04:24:37.891Z,99.90
2023-04-03T04:29:41.698Z,99.90
2023-04-03T04:34:46.957Z,99.90
2023-04-03T04:39:50.465Z,99.90
2023-04-03T04:44:53.805Z,99.90
2023-04-03T04:49:58.618Z,99.90
2023-04-03T04:55:02.418Z,99.90
2023-04-03T05:00:07.584Z,99.90
2023-04-03T05:05:12.769Z,99.90
2023-04-03T05:10:16.753Z,99.90
2023-04-03T05:15:22.387Z,99.90
2023-04-03T05:20:27.542Z,99.90
2023-04-03T05:25:31.798Z,99.90
2023-04-03T05:30:35.998Z,99.90
2023-04-03T05:35:42.499Z,99.90
2023-04-03T05:40:49.188Z,99.90
2023-04-03T05:45:53.978Z,99.90
2023-04-03T05:51:01.139Z,99.90
2023-04-03T05:56:04.518Z,99.90
2023-04-03T06:01:12.731Z,99.90
2023-04-03T06:06:18.488Z,99.90
2023-04-03T06:11:22.600Z,99.90
2023-04-03T06:16:26.262Z,99.90
2023-04-03T06:21:31.594Z,99.90
2023-04-03T06:26:34.919Z,99.90
2023-04-03T06:31:38.566Z,99.90
2023-04-03T06:36:43.657Z,99.90
2023-04-03T06:41:46.913Z,99.90
2023-04-03T06:46:50.565Z,99.90
2023-04-03T06:51:55.752Z,99.90
2023-04-03T06:56:59.066Z,99.90
2023-04-03T07:02:02.422Z,99.70
2023-04-03T07:07:07.109Z,99.40
2023-04-03T07:12:10.322Z,99.00
2023-04-03T07:17:13.554Z,98.40
2023-04-03T07:22:18.152Z,97.90
2023-04-03T07:27:21.415Z,97.30
2023-04-03T07:32:24.586Z,96.90
2023-04-03T07:37:29.271Z,96.30
2023-04-03T07:42:32.611Z,95.70
2023-04-03T07:47:36.189Z,95.00
2023-04-03T07:52:40.749Z,94.50
2023-04-03T07:57:44.566Z,93.80
2023-04-03T08:02:51.440Z,93.40
2023-04-03T08:07:56.449Z,92.70
2023-04-03T08:13:00.120Z,92.40
2023-04-03T08:18:05.022Z,91.60
2023-04-03T08:23:10.545Z,91.00
2023-04-03T08:28:14.687Z,90.50
2023-04-03T08:33:18.198Z,88.10
2023-04-03T08:38:23.098Z,86.50
2023-04-03T08:43:38.788Z,86.10
2023-04-03T08:48:44.691Z,85.40
2023-04-03T08:53:57.320Z,84.20
2023-04-03T08:59:06.188Z,80.70
2023-04-03T09:04:14.228Z,78.60
2023-04-03T09:09:32.864Z,77.40
2023-04-03T09:14:40.468Z,77.00
2023-04-03T09:19:53.938Z,76.80
2023-04-03T09:25:03.670Z,76.30
2023-04-03T09:30:10.162Z,76.80
2023-04-03T09:35:27.412Z,76.00
2023-04-03T09:40:43.333Z,74.30
2023-04-03T09:45:48.636Z,73.30
2023-04-03T09:51:04.531Z,72.80
2023-04-03T09:56:23.304Z,72.00
2023-04-03T10:01:30.719Z,72.00
2023-04-03T10:06:36.858Z,71.00
2023-04-03T10:12:02.633Z,69.90
2023-04-03T10:17:21.063Z,70.10
2023-04-03T10:22:31.270Z,69.60
2023-04-03T10:27:55.739Z,69.00
2023-04-03T10:33:20.456Z,67.70
2023-04-03T10:38:32.254Z,68.40
2023-04-03T10:43:45.716Z,67.80
2023-04-03T10:49:01.232Z,66.60
2023-04-03T10:54:13.934Z,66.40
2023-04-03T10:59:30.316Z,65.90
2023-04-03T11:04:38.521Z,65.80
2023-04-03T11:09:45.154Z,65.60
2023-04-03T11:14:52.700Z,64.40
2023-04-03T11:20:08.102Z,63.40
2023-04-03T11:25:23.290Z,63.20
2023-04-03T11:30:32.780Z,62.50
2023-04-03T11:35:37.399Z,63.20
2023-04-03T11:40:42.137Z,62.90
2023-04-03T11:45:57.295Z,63.00
2023-04-03T11:51:01.957Z,62.30
2023-04-03T11:56:33.332Z,61.40
2023-04-03T12:01:49.301Z,61.20
2023-04-03T12:07:05.284Z,61.90
2023-04-03T12:12:30.524Z,60.70
2023-04-03T12:17:36.333Z,59.90
2023-04-03T12:22:39.946Z,60.60
2023-04-03T12:27:44.918Z,60.10
2023-04-03T12:33:13.716Z,59.40
2023-04-03T12:38:54.279Z,59.40
2023-04-03T12:44:11.804Z,59.60
2023-04-03T12:49:29.008Z,58.90
2023-04-03T12:54:37.544Z,59.00
2023-04-03T12:59:42.143Z,58.90
2023-04-03T13:04:48.038Z,58.90
2023-04-03T13:10:00.445Z,58.60
2023-04-03T13:15:17.216Z,58.20
2023-04-03T13:20:26.466Z,58.00
2023-04-03T13:25:33.905Z,58.00
2023-04-03T13:30:40.378Z,57.50
2023-04-03T13:35:46.048Z,57.60
2023-04-03T13:40:51.501Z,57.80
2023-04-03T13:46:07.413Z,57.40
2023-04-03T13:51:23.776Z,56.90
2023-04-03T13:56:33.027Z,57.10
2023-04-03T14:01:44.060Z,57.40
2023-04-03T14:06:49.838Z,56.80
2023-04-03T14:11:56.734Z,56.80
2023-04-03T14:17:02.303Z,57.40
2023-04-03T14:22:16.239Z,58.00
2023-04-03T14:27:22.947Z,57.60
2023-04-03T14:32:27.652Z,58.00
2023-04-03T14:37:33.738Z,57.90
2023-04-03T14:42:39.372Z,58.00
2023-04-03T14:47:45.249Z,58.20
2023-04-03T14:52:51.724Z,57.70
2023-04-03T14:57:55.944Z,58.10
2023-04-03T15:02:59.673Z,57.70
2023-04-03T15:08:04.580Z,58.00
2023-04-03T15:13:08.325Z,57.80
2023-04-03T15:18:17.799Z,57.30
2023-04-03T15:23:27.100Z,57.10
2023-04-03T15:28:33.565Z,57.60
2023-04-03T15:33:38.211Z,57.70
2023-04-03T15:38:43.359Z,57.70
2023-04-03T15:43:47.123Z,57.60
2023-04-03T15:48:51.037Z,57.60
2023-04-03T15:53:56.222Z,57.90
2023-04-03T15:58:59.800Z,58.00
2023-04-03T16:04:03.803Z,58.20
2023-04-03T16:09:09.481Z,58.10
2023-04-03T16:14:13.289Z,58.20
2023-04-03T16:19:17.012Z,58.20
2023-04-03T16:24:22.211Z,58.20
2023-04-03T16:29:25.798Z,58.40
2023-04-03T16:34:31.424Z,58.50
2023-04-03T16:39:36.947Z,59.00
2023-04-03T16:44:41.341Z,59.20
2023-04-03T16:49:45.600Z,59.30
2023-04-03T16:54:50.435Z,59.60
2023-04-03T16:59:54.417Z,60.00
2023-04-03T17:04:57.968Z,60.20
2023-04-03T17:10:02.567Z,60.50
2023-04-03T17:15:06.963Z,60.50
2023-04-03T17:20:11.910Z,60.80
2023-04-03T17:25:17.289Z,60.90
2023-04-03T17:30:21.084Z,61.10
2023-04-03T17:35:24.949Z,61.30
2023-04-03T17:40:29.895Z,61.50
2023-04-03T17:45:33.873Z,61.70
2023-04-03T17:50:39.276Z,61.90
2023-04-03T17:55:43.967Z,62.20
2023-04-03T18:00:47.482Z,62.40
2023-04-03T18:05:54.973Z,62.60
2023-04-03T18:11:00.650Z,62.80
2023-04-03T18:16:04.668Z,63.00
2023-04-03T18:21:11.257Z,63.40
2023-04-03T18:26:19.825Z,63.40
2023-04-03T18:31:25.839Z,63.20
2023-04-03T18:36:30.267Z,62.70
2023-04-03T18:41:38.232Z,62.40
2023-04-03T18:46:41.899Z,62.00
2023-04-03T18:51:45.730Z,61.90
2023-04-03T18:56:50.605Z,61.80
2023-04-03T19:01:53.923Z,61.60
2023-04-03T19:06:57.715Z,61.80
2023-04-03T19:12:03.094Z,61.90
2023-04-03T19:17:08.156Z,62.00
2023-04-03T19:22:11.733Z,62.20
2023-04-03T19:27:17.116Z,62.40
2023-04-03T19:32:20.836Z,62.60
2023-04-03T19:37:25.398Z,63.00
2023-04-03T19:42:31.901Z,63.30
2023-04-03T19:47:38.568Z,63.50
2023-04-03T19:52:42.907Z,63.70
2023-04-03T19:57:48.000Z,63.90
2023-04-03T20:02:51.793Z,64.10
2023-04-03T20:07:56.444Z,64.30
2023-04-03T20:13:01.849Z,64.50
2023-04-03T20:18:05.784Z,64.60
2023-04-03T20:23:11.384Z,64.70
2023-04-03T20:28:17.127Z,64.80
2023-04-03T20:33:21.671Z,65.00
2023-04-03T20:38:25.355Z,65.10
2023-04-03T20:43:30.199Z,65.40
2023-04-03T20:48:33.757Z,65.60
2023-04-03T20:53:37.930Z,65.80
2023-04-03T20:58:43.869Z,66.10
2023-04-03T21:03:47.940Z,66.30
2023-04-03T21:09:29.274Z,66.40
2023-04-03T21:15:10.297Z,66.60
2023-04-03T21:20:15.012Z,66.80
2023-04-03T21:25:18.620Z,66.90
2023-04-03T21:30:22.521Z,67.20
2023-04-03T21:35:27.306Z,67.30
2023-04-03T21:40:32.134Z,67.50
2023-04-03T21:45:35.685Z,67.70
2023-04-03T21:50:40.540Z,68.00
2023-04-03T21:55:44.331Z,68.20
2023-04-03T22:00:48.103Z,68.40
2023-04-03T22:05:53.869Z,68.60
2023-04-03T22:11:02.887Z,68.80
2023-04-03T22:16:07.042Z,69.20
2023-04-03T22:21:12.188Z,69.70
2023-04-03T22:26:15.997Z,70.10
2023-04-03T22:31:21.126Z,70.40
2023-04-03T22:36:26.456Z,70.70
2023-04-03T22:41:30.057Z,71.10
2023-04-03T22:46:33.595Z,71.40
2023-04-03T22:51:38.542Z,71.60
2023-04-03T22:56:42.176Z,71.80
2023-04-03T23:01:46.010Z,72.10
2023-04-03T23:06:50.824Z,72.30
2023-04-03T23:11:54.142Z,72.50
2023-04-03T23:16:57.884Z,72.80
2023-04-03T23:22:03.316Z,72.90
2023-04-03T23:27:07.011Z,73.30
2023-04-03T23:32:11.122Z,73.60
2023-04-03T23:37:16.237Z,73.90
2023-04-03T23:42:19.541Z,74.30
2023-04-03T23:47:23.309Z,74.70
2023-04-03T23:52:28.942Z,75.00
2023-04-03T23:57:32.525Z,75.40
